sensor_id;sensor_type;location;lat;lon;timestamp;P1;durP1;ratioP1;P2;durP2;ratioP2
6828;SDS011;17930;48.592;8.868;2022-09-27T00:02:00;1.63;;;1.00;;
6828;SDS011;17930;48.592;8.868;2022-09-27T00:04:27;1.27;;;1.00;;
6828;SDS011;17930;48.592;8.868;2022-09-27T00:06:54;1.53;;;0.93;;
6828;SDS011;17930;48.592;8.868;2022-09-27T00:09:22;1.00;;;0.90;;
6828;SDS011;17930;48.592;8.868;2022-09-27T00:11:48;2.43;;;0.90;;
6828;SDS011;17930;48.592;8.868;2022-09-27T00:14:15;1.37;;;0.80;;
6828;SDS011;17930;48.592;8.868;2022-09-27T00:16:43;1.33;;;1.07;;
6828;SDS011;17930;48.592;8.868;2022-09-27T00:19:11;2.53;;;1.10;;
6828;SDS011;17930;48.592;8.868;2022-09-27T00:21:39;1.50;;;0.70;;
6828;SDS011;17930;48.592;8.868;2022-09-27T00:24:06;0.83;;;0.80;;
6828;SDS011;17930;48.592;8.868;2022-09-27T00:26:38;2.00;;;0.80;;
6828;SDS011;17930;48.592;8.868;2022-09-27T00:29:04;1.23;;;0.83;;
6828;SDS011;17930;48.592;8.868;2022-09-27T00:31:31;1.03;;;0.73;;
6828;SDS011;17930;48.592;8.868;2022-09-27T00:34:00;0.93;;;0.70;;
6828;SDS011;17930;48.592;8.868;2022-09-27T00:36:28;2.73;;;0.93;;
6828;SDS011;17930;48.592;8.868;2022-09-27T00:38:55;2.37;;;0.90;;
6828;SDS011;17930;48.592;8.868;2022-09-27T00:41:24;1.20;;;1.00;;
6828;SDS011;17930;48.592;8.868;2022-09-27T00:43:55;2.73;;;0.93;;
6828;SDS011;17930;48.592;8.868;2022-09-27T00:46:25;0.80;;;0.70;;
6828;SDS011;17930;48.592;8.868;2022-09-27T00:48:58;1.70;;;0.97;;
6828;SDS011;17930;48.592;8.868;2022-09-27T00:51:29;1.23;;;0.73;;
6828;SDS011;17930;48.592;8.868;2022-09-27T00:53:59;2.57;;;0.90;;
6828;SDS011;17930;48.592;8.868;2022-09-27T00:56:28;1.50;;;0.60;;
6828;SDS011;17930;48.592;8.868;2022-09-27T00:58:58;0.60;;;0.50;;
6828;SDS011;17930;48.592;8.868;2022-09-27T01:01:28;2.40;;;1.23;;
6828;SDS011;17930;48.592;8.868;2022-09-27T01:03:56;2.10;;;0.93;;
6828;SDS011;17930;48.592;8.868;2022-09-27T01:06:28;1.07;;;0.80;;
6828;SDS011;17930;48.592;8.868;2022-09-27T01:08:54;0.97;;;0.53;;
6828;SDS011;17930;48.592;8.868;2022-09-27T01:11:24;1.87;;;0.90;;
6828;SDS011;17930;48.592;8.868;2022-09-27T01:14:09;0.90;;;0.70;;
6828;SDS011;17930;48.592;8.868;2022-09-27T01:16:51;0.80;;;0.60;;
6828;SDS011;17930;48.592;8.868;2022-09-27T01:19:43;0.80;;;0.67;;
6828;SDS011;17930;48.592;8.868;2022-09-27T01:22:24;1.30;;;0.80;;
6828;SDS011;17930;48.592;8.868;2022-09-27T01:25:02;0.80;;;0.70;;
6828;SDS011;17930;48.592;8.868;2022-09-27T01:30:35;1.37;;;1.00;;
6828;SDS011;17930;48.592;8.868;2022-09-27T01:33:13;1.23;;;0.57;;
6828;SDS011;17930;48.592;8.868;2022-09-27T01:35:55;0.60;;;0.60;;
6828;SDS011;17930;48.592;8.868;2022-09-27T01:38:31;0.40;;;0.40;;
6828;SDS011;17930;48.592;8.868;2022-09-27T01:41:05;0.60;;;0.60;;
6828;SDS011;17930;48.592;8.868;2022-09-27T01:43:42;1.27;;;0.60;;
6828;SDS011;17930;48.592;8.868;2022-09-27T01:52:40;1.30;;;0.60;;
6828;SDS011;17930;48.592;8.868;2022-09-27T01:55:10;0.60;;;0.60;;
6828;SDS011;17930;48.592;8.868;2022-09-27T01:57:41;0.53;;;0.53;;
6828;SDS011;17930;48.592;8.868;2022-09-27T02:00:13;0.70;;;0.70;;
6828;SDS011;17930;48.592;8.868;2022-09-27T02:03:20;0.50;;;0.40;;
6828;SDS011;17930;48.592;8.868;2022-09-27T02:06:22;0.77;;;0.77;;
6828;SDS011;17930;48.592;8.868;2022-09-27T02:09:02;2.73;;;0.70;;
6828;SDS011;17930;48.592;8.868;2022-09-27T02:11:33;1.33;;;0.50;;
6828;SDS011;17930;48.592;8.868;2022-09-27T02:14:05;0.80;;;0.50;;
6828;SDS011;17930;48.592;8.868;2022-09-27T02:16:39;1.90;;;0.87;;
6828;SDS011;17930;48.592;8.868;2022-09-27T02:19:16;2.83;;;0.70;;
6828;SDS011;17930;48.592;8.868;2022-09-27T02:21:54;0.87;;;0.60;;
6828;SDS011;17930;48.592;8.868;2022-09-27T02:24:31;0.70;;;0.60;;
6828;SDS011;17930;48.592;8.868;2022-09-27T02:27:04;0.70;;;0.60;;
6828;SDS011;17930;48.592;8.868;2022-09-27T02:29:38;0.83;;;0.60;;
6828;SDS011;17930;48.592;8.868;2022-09-27T02:32:08;1.17;;;0.70;;
6828;SDS011;17930;48.592;8.868;2022-09-27T02:34:35;1.23;;;0.40;;
6828;SDS011;17930;48.592;8.868;2022-09-27T02:37:03;1.23;;;0.40;;
6828;SDS011;17930;48.592;8.868;2022-09-27T02:39:31;1.83;;;0.50;;
6828;SDS011;17930;48.592;8.868;2022-09-27T02:41:58;0.87;;;0.47;;
6828;SDS011;17930;48.592;8.868;2022-09-27T02:44:25;0.50;;;0.50;;
6828;SDS011;17930;48.592;8.868;2022-09-27T02:46:57;0.37;;;0.30;;
6828;SDS011;17930;48.592;8.868;2022-09-27T02:49:40;1.03;;;0.33;;
6828;SDS011;17930;48.592;8.868;2022-09-27T02:52:17;1.60;;;0.70;;
6828;SDS011;17930;48.592;8.868;2022-09-27T02:55:08;0.73;;;0.40;;
6828;SDS011;17930;48.592;8.868;2022-09-27T02:58:09;0.63;;;0.50;;
6828;SDS011;17930;48.592;8.868;2022-09-27T03:00:51;0.50;;;0.43;;
6828;SDS011;17930;48.592;8.868;2022-09-27T03:03:27;1.70;;;0.60;;
6828;SDS011;17930;48.592;8.868;2022-09-27T03:06:04;1.03;;;0.70;;
6828;SDS011;17930;48.592;8.868;2022-09-27T03:08:33;2.17;;;0.77;;
6828;SDS011;17930;48.592;8.868;2022-09-27T03:13:45;2.13;;;1.17;;
6828;SDS011;17930;48.592;8.868;2022-09-27T03:16:14;3.13;;;1.07;;
6828;SDS011;17930;48.592;8.868;2022-09-27T03:19:10;3.40;;;1.03;;
6828;SDS011;17930;48.592;8.868;2022-09-27T03:21:41;3.70;;;1.27;;
6828;SDS011;17930;48.592;8.868;2022-09-27T03:24:08;2.30;;;1.17;;
6828;SDS011;17930;48.592;8.868;2022-09-27T03:26:47;1.33;;;0.93;;
6828;SDS011;17930;48.592;8.868;2022-09-27T03:33:06;2.93;;;1.10;;
6828;SDS011;17930;48.592;8.868;2022-09-27T03:35:36;4.20;;;1.30;;
6828;SDS011;17930;48.592;8.868;2022-09-27T03:39:16;3.40;;;1.33;;
6828;SDS011;17930;48.592;8.868;2022-09-27T03:44:46;5.93;;;2.03;;
6828;SDS011;17930;48.592;8.868;2022-09-27T03:47:43;5.60;;;1.33;;
6828;SDS011;17930;48.592;8.868;2022-09-27T03:50:10;4.70;;;1.73;;
6828;SDS011;17930;48.592;8.868;2022-09-27T03:53:31;4.23;;;1.50;;
6828;SDS011;17930;48.592;8.868;2022-09-27T03:58:56;3.60;;;2.00;;
6828;SDS011;17930;48.592;8.868;2022-09-27T04:01:45;5.73;;;2.50;;
6828;SDS011;17930;48.592;8.868;2022-09-27T04:04:59;4.90;;;1.40;;
6828;SDS011;17930;48.592;8.868;2022-09-27T04:07:59;7.20;;;1.60;;
6828;SDS011;17930;48.592;8.868;2022-09-27T04:10:37;5.83;;;1.83;;
6828;SDS011;17930;48.592;8.868;2022-09-27T04:13:33;4.23;;;1.67;;
6828;SDS011;17930;48.592;8.868;2022-09-27T04:16:00;7.33;;;1.93;;
6828;SDS011;17930;48.592;8.868;2022-09-27T04:18:28;3.50;;;1.70;;
6828;SDS011;17930;48.592;8.868;2022-09-27T04:21:01;4.17;;;2.17;;
6828;SDS011;17930;48.592;8.868;2022-09-27T04:23:29;4.07;;;2.37;;
6828;SDS011;17930;48.592;8.868;2022-09-27T04:26:18;1.80;;;1.10;;
6828;SDS011;17930;48.592;8.868;2022-09-27T04:36:21;1.87;;;1.07;;
6828;SDS011;17930;48.592;8.868;2022-09-27T04:38:54;2.47;;;1.10;;
6828;SDS011;17930;48.592;8.868;2022-09-27T04:41:22;5.17;;;1.37;;
6828;SDS011;17930;48.592;8.868;2022-09-27T04:44:26;2.53;;;1.30;;
6828;SDS011;17930;48.592;8.868;2022-09-27T04:46:53;2.17;;;1.00;;
6828;SDS011;17930;48.592;8.868;2022-09-27T04:50:23;1.67;;;1.10;;
6828;SDS011;17930;48.592;8.868;2022-09-27T04:53:06;1.77;;;1.20;;
6828;SDS011;17930;48.592;8.868;2022-09-27T04:55:43;2.90;;;1.13;;
6828;SDS011;17930;48.592;8.868;2022-09-27T04:59:25;2.63;;;1.10;;
6828;SDS011;17930;48.592;8.868;2022-09-27T05:05:21;2.50;;;1.20;;
6828;SDS011;17930;48.592;8.868;2022-09-27T05:07:47;4.43;;;1.83;;
6828;SDS011;17930;48.592;8.868;2022-09-27T05:10:44;8.03;;;2.33;;
6828;SDS011;17930;48.592;8.868;2022-09-27T05:13:12;1.93;;;1.20;;
6828;SDS011;17930;48.592;8.868;2022-09-27T05:15:39;2.93;;;1.10;;
6828;SDS011;17930;48.592;8.868;2022-09-27T05:18:06;3.43;;;1.50;;
6828;SDS011;17930;48.592;8.868;2022-09-27T05:20:34;2.97;;;1.20;;
6828;SDS011;17930;48.592;8.868;2022-09-27T05:23:01;2.10;;;0.93;;
6828;SDS011;17930;48.592;8.868;2022-09-27T05:25:28;4.00;;;1.53;;
6828;SDS011;17930;48.592;8.868;2022-09-27T05:27:57;3.07;;;1.30;;
6828;SDS011;17930;48.592;8.868;2022-09-27T05:30:24;2.77;;;1.40;;
6828;SDS011;17930;48.592;8.868;2022-09-27T05:32:52;3.43;;;1.43;;
6828;SDS011;17930;48.592;8.868;2022-09-27T05:35:20;1.90;;;1.17;;
6828;SDS011;17930;48.592;8.868;2022-09-27T05:37:50;3.00;;;1.30;;
6828;SDS011;17930;48.592;8.868;2022-09-27T05:40:20;3.00;;;1.40;;
6828;SDS011;17930;48.592;8.868;2022-09-27T05:42:54;2.90;;;1.40;;
6828;SDS011;17930;48.592;8.868;2022-09-27T05:45:23;2.70;;;1.57;;
6828;SDS011;17930;48.592;8.868;2022-09-27T05:47:51;2.80;;;1.30;;
6828;SDS011;17930;48.592;8.868;2022-09-27T05:50:19;3.30;;;2.17;;
6828;SDS011;17930;48.592;8.868;2022-09-27T05:52:46;1.60;;;1.13;;
6828;SDS011;17930;48.592;8.868;2022-09-27T05:55:13;5.40;;;1.63;;
6828;SDS011;17930;48.592;8.868;2022-09-27T06:00:44;2.37;;;1.00;;
6828;SDS011;17930;48.592;8.868;2022-09-27T06:03:12;1.90;;;1.30;;
6828;SDS011;17930;48.592;8.868;2022-09-27T06:05:39;2.93;;;1.80;;
6828;SDS011;17930;48.592;8.868;2022-09-27T06:08:06;5.37;;;1.50;;
6828;SDS011;17930;48.592;8.868;2022-09-27T06:10:34;5.13;;;1.43;;
6828;SDS011;17930;48.592;8.868;2022-09-27T06:13:01;2.07;;;1.00;;
6828;SDS011;17930;48.592;8.868;2022-09-27T06:15:30;3.27;;;1.30;;
6828;SDS011;17930;48.592;8.868;2022-09-27T06:18:02;1.87;;;1.20;;
6828;SDS011;17930;48.592;8.868;2022-09-27T06:20:30;1.67;;;1.00;;
6828;SDS011;17930;48.592;8.868;2022-09-27T06:23:02;0.87;;;0.83;;
6828;SDS011;17930;48.592;8.868;2022-09-27T06:25:33;0.70;;;0.70;;
6828;SDS011;17930;48.592;8.868;2022-09-27T06:28:00;1.60;;;0.60;;
6828;SDS011;17930;48.592;8.868;2022-09-27T06:30:27;1.07;;;0.70;;
6828;SDS011;17930;48.592;8.868;2022-09-27T06:32:55;0.63;;;0.63;;
6828;SDS011;17930;48.592;8.868;2022-09-27T06:35:24;0.70;;;0.57;;
6828;SDS011;17930;48.592;8.868;2022-09-27T06:37:50;0.50;;;0.50;;
6828;SDS011;17930;48.592;8.868;2022-09-27T06:40:18;1.70;;;0.53;;
6828;SDS011;17930;48.592;8.868;2022-09-27T06:42:45;0.40;;;0.40;;
6828;SDS011;17930;48.592;8.868;2022-09-27T06:45:12;4.23;;;1.50;;
6828;SDS011;17930;48.592;8.868;2022-09-27T06:47:39;1.00;;;0.70;;
6828;SDS011;17930;48.592;8.868;2022-09-27T06:50:06;0.70;;;0.33;;
6828;SDS011;17930;48.592;8.868;2022-09-27T06:52:37;0.40;;;0.40;;
6828;SDS011;17930;48.592;8.868;2022-09-27T06:59:00;0.40;;;0.40;;
6828;SDS011;17930;48.592;8.868;2022-09-27T07:01:45;0.50;;;0.40;;
6828;SDS011;17930;48.592;8.868;2022-09-27T07:07:34;1.73;;;0.87;;
6828;SDS011;17930;48.592;8.868;2022-09-27T07:18:06;0.87;;;0.43;;
6828;SDS011;17930;48.592;8.868;2022-09-27T07:23:25;0.60;;;0.50;;
6828;SDS011;17930;48.592;8.868;2022-09-27T07:25:54;1.50;;;0.30;;
6828;SDS011;17930;48.592;8.868;2022-09-27T07:28:41;0.50;;;0.40;;
6828;SDS011;17930;48.592;8.868;2022-09-27T07:31:36;0.80;;;0.60;;
6828;SDS011;17930;48.592;8.868;2022-09-27T07:34:08;0.30;;;0.30;;
6828;SDS011;17930;48.592;8.868;2022-09-27T07:36:39;3.20;;;0.50;;
6828;SDS011;17930;48.592;8.868;2022-09-27T07:39:05;0.33;;;0.33;;
6828;SDS011;17930;48.592;8.868;2022-09-27T07:41:33;1.50;;;0.30;;
6828;SDS011;17930;48.592;8.868;2022-09-27T07:44:00;0.70;;;0.43;;
6828;SDS011;17930;48.592;8.868;2022-09-27T07:46:28;0.73;;;0.40;;
6828;SDS011;17930;48.592;8.868;2022-09-27T07:48:55;1.03;;;0.50;;
6828;SDS011;17930;48.592;8.868;2022-09-27T07:51:24;0.93;;;0.40;;
6828;SDS011;17930;48.592;8.868;2022-09-27T07:53:50;2.00;;;0.43;;
6828;SDS011;17930;48.592;8.868;2022-09-27T07:56:17;0.20;;;0.20;;
6828;SDS011;17930;48.592;8.868;2022-09-27T07:58:44;1.53;;;0.57;;
6828;SDS011;17930;48.592;8.868;2022-09-27T08:01:10;0.30;;;0.30;;
6828;SDS011;17930;48.592;8.868;2022-09-27T08:03:37;1.03;;;0.53;;
6828;SDS011;17930;48.592;8.868;2022-09-27T08:06:04;0.40;;;0.30;;
6828;SDS011;17930;48.592;8.868;2022-09-27T08:08:33;0.40;;;0.40;;
6828;SDS011;17930;48.592;8.868;2022-09-27T08:10:59;0.40;;;0.40;;
6828;SDS011;17930;48.592;8.868;2022-09-27T08:13:26;0.30;;;0.30;;
6828;SDS011;17930;48.592;8.868;2022-09-27T08:15:54;0.40;;;0.40;;
6828;SDS011;17930;48.592;8.868;2022-09-27T08:18:27;0.33;;;0.33;;
6828;SDS011;17930;48.592;8.868;2022-09-27T08:20:55;1.27;;;0.40;;
6828;SDS011;17930;48.592;8.868;2022-09-27T08:23:22;0.63;;;0.40;;
6828;SDS011;17930;48.592;8.868;2022-09-27T08:25:51;1.10;;;0.43;;
6828;SDS011;17930;48.592;8.868;2022-09-27T08:28:18;0.30;;;0.30;;
6828;SDS011;17930;48.592;8.868;2022-09-27T08:30:46;1.20;;;0.60;;
6828;SDS011;17930;48.592;8.868;2022-09-27T08:33:13;1.90;;;0.40;;
6828;SDS011;17930;48.592;8.868;2022-09-27T08:35:40;0.70;;;0.40;;
6828;SDS011;17930;48.592;8.868;2022-09-27T08:38:08;1.13;;;0.43;;
6828;SDS011;17930;48.592;8.868;2022-09-27T08:40:39;0.40;;;0.40;;
6828;SDS011;17930;48.592;8.868;2022-09-27T08:43:15;0.87;;;0.30;;
6828;SDS011;17930;48.592;8.868;2022-09-27T08:45:54;0.30;;;0.27;;
6828;SDS011;17930;48.592;8.868;2022-09-27T08:48:32;0.90;;;0.60;;
6828;SDS011;17930;48.592;8.868;2022-09-27T08:51:02;2.90;;;0.60;;
6828;SDS011;17930;48.592;8.868;2022-09-27T08:53:32;1.47;;;0.53;;
6828;SDS011;17930;48.592;8.868;2022-09-27T08:56:03;0.43;;;0.43;;
6828;SDS011;17930;48.592;8.868;2022-09-27T08:58:35;0.70;;;0.50;;
6828;SDS011;17930;48.592;8.868;2022-09-27T09:01:10;0.63;;;0.40;;
6828;SDS011;17930;48.592;8.868;2022-09-27T09:03:41;0.53;;;0.50;;
6828;SDS011;17930;48.592;8.868;2022-09-27T09:06:13;0.67;;;0.60;;
6828;SDS011;17930;48.592;8.868;2022-09-27T09:08:50;0.80;;;0.50;;
6828;SDS011;17930;48.592;8.868;2022-09-27T09:11:30;0.77;;;0.40;;
6828;SDS011;17930;48.592;8.868;2022-09-27T09:14:27;0.50;;;0.50;;
6828;SDS011;17930;48.592;8.868;2022-09-27T09:17:19;0.40;;;0.40;;
6828;SDS011;17930;48.592;8.868;2022-09-27T09:19:58;1.37;;;0.70;;
6828;SDS011;17930;48.592;8.868;2022-09-27T09:22:40;1.73;;;0.40;;
6828;SDS011;17930;48.592;8.868;2022-09-27T09:25:21;0.40;;;0.40;;
6828;SDS011;17930;48.592;8.868;2022-09-27T09:27:58;0.80;;;0.30;;
6828;SDS011;17930;48.592;8.868;2022-09-27T09:30:36;0.60;;;0.50;;
6828;SDS011;17930;48.592;8.868;2022-09-27T09:33:15;0.73;;;0.70;;
6828;SDS011;17930;48.592;8.868;2022-09-27T09:35:49;1.37;;;0.70;;
6828;SDS011;17930;48.592;8.868;2022-09-27T09:38:24;1.33;;;0.90;;
6828;SDS011;17930;48.592;8.868;2022-09-27T09:40:59;1.67;;;0.90;;
6828;SDS011;17930;48.592;8.868;2022-09-27T09:43:31;2.57;;;1.10;;
6828;SDS011;17930;48.592;8.868;2022-09-27T09:46:05;2.17;;;1.07;;
6828;SDS011;17930;48.592;8.868;2022-09-27T09:48:38;1.03;;;0.80;;
6828;SDS011;17930;48.592;8.868;2022-09-27T09:51:12;1.77;;;1.20;;
6828;SDS011;17930;48.592;8.868;2022-09-27T09:53:48;1.33;;;0.90;;
6828;SDS011;17930;48.592;8.868;2022-09-27T09:56:20;1.30;;;1.00;;
6828;SDS011;17930;48.592;8.868;2022-09-27T09:58:52;1.87;;;0.93;;
6828;SDS011;17930;48.592;8.868;2022-09-27T10:01:24;3.90;;;0.90;;
6828;SDS011;17930;48.592;8.868;2022-09-27T10:03:53;1.67;;;0.90;;
6828;SDS011;17930;48.592;8.868;2022-09-27T10:06:20;1.50;;;1.03;;
6828;SDS011;17930;48.592;8.868;2022-09-27T10:08:46;2.77;;;1.10;;
6828;SDS011;17930;48.592;8.868;2022-09-27T10:11:18;2.30;;;1.00;;
6828;SDS011;17930;48.592;8.868;2022-09-27T10:13:47;1.90;;;1.03;;
6828;SDS011;17930;48.592;8.868;2022-09-27T10:16:15;0.93;;;0.87;;
6828;SDS011;17930;48.592;8.868;2022-09-27T10:18:45;2.47;;;1.43;;
6828;SDS011;17930;48.592;8.868;2022-09-27T10:21:14;2.33;;;1.53;;
6828;SDS011;17930;48.592;8.868;2022-09-27T10:24:01;1.90;;;1.10;;
6828;SDS011;17930;48.592;8.868;2022-09-27T10:26:30;2.63;;;1.20;;
6828;SDS011;17930;48.592;8.868;2022-09-27T10:28:59;2.60;;;1.63;;
6828;SDS011;17930;48.592;8.868;2022-09-27T10:31:40;7.03;;;1.33;;
6828;SDS011;17930;48.592;8.868;2022-09-27T10:34:17;2.83;;;1.27;;
6828;SDS011;17930;48.592;8.868;2022-09-27T10:37:00;2.50;;;1.20;;
6828;SDS011;17930;48.592;8.868;2022-09-27T10:39:31;1.90;;;0.77;;
6828;SDS011;17930;48.592;8.868;2022-09-27T10:41:59;1.53;;;0.87;;
6828;SDS011;17930;48.592;8.868;2022-09-27T10:44:26;1.67;;;0.70;;
6828;SDS011;17930;48.592;8.868;2022-09-27T10:46:57;1.13;;;0.90;;
6828;SDS011;17930;48.592;8.868;2022-09-27T10:49:28;3.80;;;1.13;;
6828;SDS011;17930;48.592;8.868;2022-09-27T10:51:58;2.57;;;1.20;;
6828;SDS011;17930;48.592;8.868;2022-09-27T10:54:26;2.07;;;1.10;;
6828;SDS011;17930;48.592;8.868;2022-09-27T10:56:55;2.27;;;1.23;;
6828;SDS011;17930;48.592;8.868;2022-09-27T10:59:24;2.27;;;1.10;;
6828;SDS011;17930;48.592;8.868;2022-09-27T11:01:54;2.03;;;0.80;;
6828;SDS011;17930;48.592;8.868;2022-09-27T11:04:23;2.80;;;1.60;;
6828;SDS011;17930;48.592;8.868;2022-09-27T11:07:05;4.23;;;1.37;;
6828;SDS011;17930;48.592;8.868;2022-09-27T11:09:43;3.20;;;0.97;;
6828;SDS011;17930;48.592;8.868;2022-09-27T11:12:12;1.23;;;0.90;;
6828;SDS011;17930;48.592;8.868;2022-09-27T11:14:40;2.90;;;1.10;;
6828;SDS011;17930;48.592;8.868;2022-09-27T11:17:12;1.50;;;1.03;;
6828;SDS011;17930;48.592;8.868;2022-09-27T11:22:57;3.80;;;1.13;;
6828;SDS011;17930;48.592;8.868;2022-09-27T11:25:37;4.10;;;0.80;;
6828;SDS011;17930;48.592;8.868;2022-09-27T11:28:12;2.67;;;0.90;;
6828;SDS011;17930;48.592;8.868;2022-09-27T11:30:49;1.07;;;0.83;;
6828;SDS011;17930;48.592;8.868;2022-09-27T11:33:40;2.07;;;0.80;;
6828;SDS011;17930;48.592;8.868;2022-09-27T11:36:27;3.03;;;1.80;;
6828;SDS011;17930;48.592;8.868;2022-09-27T11:39:08;1.90;;;1.20;;
6828;SDS011;17930;48.592;8.868;2022-09-27T11:41:47;4.63;;;1.27;;
6828;SDS011;17930;48.592;8.868;2022-09-27T11:44:42;2.07;;;0.90;;
6828;SDS011;17930;48.592;8.868;2022-09-27T11:47:20;4.93;;;1.47;;
6828;SDS011;17930;48.592;8.868;2022-09-27T11:50:01;2.53;;;0.90;;
6828;SDS011;17930;48.592;8.868;2022-09-27T11:52:54;3.30;;;1.20;;
6828;SDS011;17930;48.592;8.868;2022-09-27T11:55:35;2.63;;;1.40;;
6828;SDS011;17930;48.592;8.868;2022-09-27T11:58:12;4.00;;;1.50;;
6828;SDS011;17930;48.592;8.868;2022-09-27T12:00:49;2.97;;;1.17;;
6828;SDS011;17930;48.592;8.868;2022-09-27T12:06:30;1.07;;;0.80;;
6828;SDS011;17930;48.592;8.868;2022-09-27T12:09:08;1.27;;;0.97;;
6828;SDS011;17930;48.592;8.868;2022-09-27T12:11:38;3.73;;;0.97;;
6828;SDS011;17930;48.592;8.868;2022-09-27T12:14:10;1.23;;;1.13;;
6828;SDS011;17930;48.592;8.868;2022-09-27T12:16:44;3.60;;;0.80;;
6828;SDS011;17930;48.592;8.868;2022-09-27T12:19:14;1.87;;;0.67;;
6828;SDS011;17930;48.592;8.868;2022-09-27T12:21:45;2.90;;;0.90;;
6828;SDS011;17930;48.592;8.868;2022-09-27T12:24:17;1.37;;;0.80;;
6828;SDS011;17930;48.592;8.868;2022-09-27T12:26:46;1.73;;;0.77;;
6828;SDS011;17930;48.592;8.868;2022-09-27T12:29:17;1.03;;;0.90;;
6828;SDS011;17930;48.592;8.868;2022-09-27T12:31:49;0.93;;;0.70;;
6828;SDS011;17930;48.592;8.868;2022-09-27T12:34:24;1.10;;;1.00;;
6828;SDS011;17930;48.592;8.868;2022-09-27T12:37:00;0.90;;;0.70;;
6828;SDS011;17930;48.592;8.868;2022-09-27T12:39:36;0.60;;;0.60;;
6828;SDS011;17930;48.592;8.868;2022-09-27T12:42:12;1.87;;;0.90;;
6828;SDS011;17930;48.592;8.868;2022-09-27T12:44:44;1.63;;;0.70;;
6828;SDS011;17930;48.592;8.868;2022-09-27T12:47:13;0.63;;;0.63;;
6828;SDS011;17930;48.592;8.868;2022-09-27T12:49:53;0.90;;;0.83;;
6828;SDS011;17930;48.592;8.868;2022-09-27T12:52:29;0.83;;;0.77;;
6828;SDS011;17930;48.592;8.868;2022-09-27T12:55:13;1.77;;;0.90;;
6828;SDS011;17930;48.592;8.868;2022-09-27T12:58:07;0.67;;;0.60;;
6828;SDS011;17930;48.592;8.868;2022-09-27T13:00:43;1.53;;;1.03;;
6828;SDS011;17930;48.592;8.868;2022-09-27T13:03:23;1.20;;;0.67;;
6828;SDS011;17930;48.592;8.868;2022-09-27T13:09:16;0.80;;;0.43;;
6828;SDS011;17930;48.592;8.868;2022-09-27T13:12:01;1.57;;;0.90;;
6828;SDS011;17930;48.592;8.868;2022-09-27T13:14:38;1.00;;;0.50;;
6828;SDS011;17930;48.592;8.868;2022-09-27T13:26:21;2.03;;;0.80;;
6828;SDS011;17930;48.592;8.868;2022-09-27T13:29:19;0.63;;;0.50;;
6828;SDS011;17930;48.592;8.868;2022-09-27T13:34:45;1.20;;;0.50;;
6828;SDS011;17930;48.592;8.868;2022-09-27T13:40:21;1.83;;;1.07;;
6828;SDS011;17930;48.592;8.868;2022-09-27T13:43:04;4.87;;;0.60;;
6828;SDS011;17930;48.592;8.868;2022-09-27T13:45:55;1.00;;;0.60;;
6828;SDS011;17930;48.592;8.868;2022-09-27T13:48:26;0.60;;;0.60;;
6828;SDS011;17930;48.592;8.868;2022-09-27T13:51:17;0.73;;;0.57;;
6828;SDS011;17930;48.592;8.868;2022-09-27T13:53:56;1.10;;;0.60;;
6828;SDS011;17930;48.592;8.868;2022-09-27T13:59:18;1.37;;;0.70;;
6828;SDS011;17930;48.592;8.868;2022-09-27T14:01:52;0.87;;;0.50;;
6828;SDS011;17930;48.592;8.868;2022-09-27T14:04:23;1.07;;;0.67;;
6828;SDS011;17930;48.592;8.868;2022-09-27T14:06:55;1.33;;;0.90;;
6828;SDS011;17930;48.592;8.868;2022-09-27T14:09:31;0.50;;;0.50;;
6828;SDS011;17930;48.592;8.868;2022-09-27T14:12:02;1.67;;;0.67;;
6828;SDS011;17930;48.592;8.868;2022-09-27T14:14:35;1.50;;;0.60;;
6828;SDS011;17930;48.592;8.868;2022-09-27T14:17:05;1.23;;;0.73;;
6828;SDS011;17930;48.592;8.868;2022-09-27T14:19:32;1.40;;;0.70;;
6828;SDS011;17930;48.592;8.868;2022-09-27T14:22:09;1.13;;;0.90;;
6828;SDS011;17930;48.592;8.868;2022-09-27T14:24:43;0.60;;;0.60;;
6828;SDS011;17930;48.592;8.868;2022-09-27T14:27:13;1.10;;;0.60;;
6828;SDS011;17930;48.592;8.868;2022-09-27T14:29:43;0.30;;;0.30;;
6828;SDS011;17930;48.592;8.868;2022-09-27T14:32:14;0.90;;;0.47;;
6828;SDS011;17930;48.592;8.868;2022-09-27T14:34:42;0.63;;;0.50;;
6828;SDS011;17930;48.592;8.868;2022-09-27T14:37:19;3.30;;;1.37;;
6828;SDS011;17930;48.592;8.868;2022-09-27T14:39:58;2.67;;;1.10;;
6828;SDS011;17930;48.592;8.868;2022-09-27T14:42:29;2.77;;;1.10;;
6828;SDS011;17930;48.592;8.868;2022-09-27T14:45:02;1.60;;;0.40;;
6828;SDS011;17930;48.592;8.868;2022-09-27T14:47:33;0.60;;;0.43;;
6828;SDS011;17930;48.592;8.868;2022-09-27T14:50:00;1.80;;;0.50;;
6828;SDS011;17930;48.592;8.868;2022-09-27T14:52:41;2.93;;;0.67;;
6828;SDS011;17930;48.592;8.868;2022-09-27T14:55:08;3.33;;;1.37;;
6828;SDS011;17930;48.592;8.868;2022-09-27T14:57:53;0.73;;;0.70;;
6828;SDS011;17930;48.592;8.868;2022-09-27T15:00:23;1.17;;;0.80;;
6828;SDS011;17930;48.592;8.868;2022-09-27T15:03:03;4.03;;;1.70;;
6828;SDS011;17930;48.592;8.868;2022-09-27T15:05:49;1.20;;;0.60;;
6828;SDS011;17930;48.592;8.868;2022-09-27T15:08:29;1.60;;;0.67;;
6828;SDS011;17930;48.592;8.868;2022-09-27T15:10:58;1.00;;;0.43;;
6828;SDS011;17930;48.592;8.868;2022-09-27T15:13:31;2.40;;;1.10;;
6828;SDS011;17930;48.592;8.868;2022-09-27T15:16:05;1.87;;;0.60;;
6828;SDS011;17930;48.592;8.868;2022-09-27T15:18:46;2.03;;;0.60;;
6828;SDS011;17930;48.592;8.868;2022-09-27T15:21:26;0.77;;;0.60;;
6828;SDS011;17930;48.592;8.868;2022-09-27T15:23:54;0.60;;;0.60;;
6828;SDS011;17930;48.592;8.868;2022-09-27T15:26:24;0.40;;;0.40;;
6828;SDS011;17930;48.592;8.868;2022-09-27T15:29:00;3.93;;;1.60;;
6828;SDS011;17930;48.592;8.868;2022-09-27T15:31:27;2.27;;;0.57;;
6828;SDS011;17930;48.592;8.868;2022-09-27T15:33:56;1.13;;;0.70;;
6828;SDS011;17930;48.592;8.868;2022-09-27T15:39:18;1.00;;;0.60;;
6828;SDS011;17930;48.592;8.868;2022-09-27T15:41:59;1.23;;;0.90;;
6828;SDS011;17930;48.592;8.868;2022-09-27T15:47:37;0.83;;;0.50;;
6828;SDS011;17930;48.592;8.868;2022-09-27T15:53:01;1.33;;;0.60;;
6828;SDS011;17930;48.592;8.868;2022-09-27T15:55:29;4.30;;;0.70;;
6828;SDS011;17930;48.592;8.868;2022-09-27T15:57:59;1.10;;;0.67;;
6828;SDS011;17930;48.592;8.868;2022-09-27T16:00:30;4.67;;;2.13;;
6828;SDS011;17930;48.592;8.868;2022-09-27T16:02:59;1.50;;;1.03;;
6828;SDS011;17930;48.592;8.868;2022-09-27T16:05:25;1.53;;;0.70;;
6828;SDS011;17930;48.592;8.868;2022-09-27T16:07:55;2.37;;;0.70;;
6828;SDS011;17930;48.592;8.868;2022-09-27T16:10:25;2.30;;;0.80;;
6828;SDS011;17930;48.592;8.868;2022-09-27T16:12:56;3.93;;;1.63;;
6828;SDS011;17930;48.592;8.868;2022-09-27T16:15:35;1.63;;;0.87;;
6828;SDS011;17930;48.592;8.868;2022-09-27T16:18:03;4.40;;;1.90;;
6828;SDS011;17930;48.592;8.868;2022-09-27T16:20:30;1.37;;;0.87;;
6828;SDS011;17930;48.592;8.868;2022-09-27T16:22:59;8.60;;;2.80;;
6828;SDS011;17930;48.592;8.868;2022-09-27T16:25:56;4.67;;;2.37;;
6828;SDS011;17930;48.592;8.868;2022-09-27T16:28:24;7.47;;;2.17;;
6828;SDS011;17930;48.592;8.868;2022-09-27T16:30:51;2.83;;;1.63;;
6828;SDS011;17930;48.592;8.868;2022-09-27T16:33:18;9.97;;;3.50;;
6828;SDS011;17930;48.592;8.868;2022-09-27T16:35:45;4.03;;;1.70;;
6828;SDS011;17930;48.592;8.868;2022-09-27T16:38:14;3.40;;;1.50;;
6828;SDS011;17930;48.592;8.868;2022-09-27T16:40:41;5.57;;;2.17;;
6828;SDS011;17930;48.592;8.868;2022-09-27T16:43:08;2.37;;;1.27;;
6828;SDS011;17930;48.592;8.868;2022-09-27T16:45:39;1.90;;;1.10;;
6828;SDS011;17930;48.592;8.868;2022-09-27T16:48:06;3.47;;;1.53;;
6828;SDS011;17930;48.592;8.868;2022-09-27T16:50:36;5.10;;;2.00;;
6828;SDS011;17930;48.592;8.868;2022-09-27T16:53:22;6.37;;;2.67;;
6828;SDS011;17930;48.592;8.868;2022-09-27T16:55:49;2.80;;;0.73;;
6828;SDS011;17930;48.592;8.868;2022-09-27T16:58:21;1.47;;;0.90;;
6828;SDS011;17930;48.592;8.868;2022-09-27T17:00:56;3.10;;;0.83;;
6828;SDS011;17930;48.592;8.868;2022-09-27T17:03:25;5.23;;;2.17;;
6828;SDS011;17930;48.592;8.868;2022-09-27T17:05:53;1.17;;;1.03;;
6828;SDS011;17930;48.592;8.868;2022-09-27T17:08:20;8.30;;;3.47;;
6828;SDS011;17930;48.592;8.868;2022-09-27T17:10:54;1.40;;;1.17;;
6828;SDS011;17930;48.592;8.868;2022-09-27T17:13:22;5.17;;;4.10;;